Bookmark and Share
Track history (hours):
 

Kai Xuan

Last reported at 2014-Apr-15 18:32 UTC. Time now 2014-Apr-17 00:54 UTC.
Position N 21°49' E 113°04'.

Length 77 m; draft 2.5 m.

Type: Tanker. MMSI: 412351760.

NotesDate/timePositionNaut miles runAvg speedWind from/ knotsBaromVisibWave heightAir tempDewpointWater temp
2014-Apr-15 18:32N 21°49' E 113°04'1010.4
2014-Apr-15 17:33N 21°50' E 113°15'2410.2
2014-Apr-15 15:14N 22°03' E 113°36'6 9.3
2014-Apr-15 14:33N 22°08' E 113°40'9 4.8
2014-Apr-15 12:34N 22°15' E 113°47'14 1.2
2014-Apr-15 00:33N 22°29' E 113°51'0 0.0
2014-Apr-13 14:26N 22°29' E 113°51'0 0.0
2014-Apr-13 13:04N 22°29' E 113°51'0 0.0
2014-Apr-13 10:10N 22°29' E 113°51'0 0.0
2014-Apr-13 09:33N 22°29' E 113°51'0 0.0
2014-Apr-13 03:25N 22°29' E 113°51'0 0.0
2014-Apr-13 01:27N 22°29' E 113°51'0 0.0
2014-Apr-12 23:27N 22°29' E 113°51'0 0.1
2014-Apr-12 22:31N 22°29' E 113°51'0 0.0
2014-Apr-12 11:10N 22°29' E 113°51'0 0.0
2014-Apr-12 10:30N 22°29' E 113°51'0 0.0
2014-Apr-12 09:25N 22°29' E 113°51'0 0.1
2014-Apr-12 08:14N 22°29' E 113°51'2 0.5
2014-Apr-12 04:33N 22°28' E 113°53'1 0.3
2014-Apr-12 01:07N 22°29' E 113°53'0 0.0
2014-Apr-11 14:09N 22°29' E 113°53'1 1.4
2014-Apr-11 13:07N 22°28' E 113°51'0 0.0
2014-Apr-11 12:33N 22°29' E 113°51'0 0.0
2014-Apr-11 11:16N 22°29' E 113°51'0 0.1
2014-Apr-11 10:28N 22°28' E 113°51'0 0.0
2014-Apr-11 09:32N 22°28' E 113°51'0 0.0
2014-Apr-11 08:33N 22°28' E 113°51'0 0.1
2014-Apr-11 07:33N 22°28' E 113°51'0 0.0
2014-Apr-11 06:33N 22°28' E 113°51'0 0.0
2014-Apr-11 04:33N 22°28' E 113°51'0 0.1
2014-Apr-11 03:31N 22°28' E 113°51'0 0.1
2014-Apr-11 02:33N 22°28' E 113°51'0 0.1
2014-Apr-11 01:14N 22°29' E 113°51'0 0.0
2014-Apr-11 00:33N 22°29' E 113°51'0 0.1
2014-Apr-10 23:33N 22°29' E 113°51'0 0.0
2014-Apr-10 22:33N 22°29' E 113°51'3 2.9
2014-Apr-10 21:33N 22°26' E 113°53'9 9.0
2014-Apr-10 20:33N 22°18' E 113°49'8 8.2
2014-Apr-10 19:33N 22°11' E 113°44'8 7.5
2014-Apr-10 18:32N 22°06' E 113°38'7 7.2
2014-Apr-10 17:33N 21°60' E 113°34'16 7.3
2014-Apr-10 15:20N 21°50' E 113°20'5 6.6
2014-Apr-10 14:33N 21°46' E 113°16'7 6.7
2014-Apr-10 13:33N 21°42' E 113°11'9 8.0
2014-Apr-10 12:26N 21°37' E 113°02'15 7.5
2014-Apr-10 10:22N 21°32' E 112°47'163 7.4
2014-Apr-09 12:25N 20°10' E 110°16'8 7.7
2014-Apr-09 11:19N 20°09' E 110°07'  

Dump ship's entire track history

sailing weather and tide predictions

Kai Xuan — BHWZ — position and weather